createdAt,value
2022-08-14T00:01:15.299Z,58.81
2022-08-14T00:06:28.874Z,58.84
2022-08-14T00:11:32.386Z,59.05
2022-08-14T00:16:41.749Z,59.10
2022-08-14T00:21:50.162Z,59.24
2022-08-14T00:26:54.829Z,59.35
2022-08-14T00:31:57.619Z,59.55
2022-08-14T00:37:01.840Z,59.79
2022-08-14T00:42:05.520Z,59.54
2022-08-14T00:47:10.953Z,59.86
2022-08-14T00:52:18.594Z,59.86
2022-08-14T00:57:23.048Z,59.72
2022-08-14T01:02:27.632Z,59.94
2022-08-14T01:07:47.399Z,60.10
2022-08-14T01:12:56.449Z,60.23
2022-08-14T01:18:16.682Z,60.43
2022-08-14T01:23:21.753Z,60.52
2022-08-14T01:28:47.211Z,60.50
2022-08-14T01:34:00.110Z,60.67
2022-08-14T01:39:18.704Z,60.62
2022-08-14T01:44:32.940Z,60.65
2022-08-14T01:49:40.507Z,60.85
2022-08-14T01:54:58.331Z,61.07
2022-08-14T02:00:03.228Z,60.92
2022-08-14T02:05:12.765Z,60.94
2022-08-14T02:10:17.885Z,60.87
2022-08-14T02:15:21.801Z,61.09
2022-08-14T02:20:24.596Z,61.11
2022-08-14T02:25:29.736Z,60.67
2022-08-14T02:30:34.786Z,60.80
2022-08-14T02:35:42.516Z,60.81
2022-08-14T02:40:48.769Z,60.77
2022-08-14T02:45:52.450Z,60.65
2022-08-14T02:50:55.194Z,60.77
2022-08-14T02:56:03.308Z,60.92
2022-08-14T03:01:13.006Z,60.95
2022-08-14T03:06:49.161Z,60.81
2022-08-14T03:11:45.091Z,60.86
2022-08-14T03:16:50.992Z,60.94
2022-08-14T03:21:53.790Z,60.97
2022-08-14T03:26:59.232Z,61.35
2022-08-14T03:32:02.008Z,61.73
2022-08-14T03:37:38.639Z,61.55
2022-08-14T03:42:36.146Z,62.81
2022-08-14T03:47:46.527Z,64.62
2022-08-14T03:53:00.840Z,66.49
2022-08-14T03:58:05.060Z,65.25
2022-08-14T04:03:10.912Z,65.32
2022-08-14T04:08:23.218Z,66.04
2022-08-14T04:13:36.191Z,67.43
2022-08-14T04:18:43.836Z,67.94
2022-08-14T04:23:56.946Z,68.53
2022-08-14T04:29:14.797Z,68.58
2022-08-14T04:34:24.264Z,69.59
2022-08-14T04:39:48.634Z,69.70
2022-08-14T04:45:01.847Z,69.66
2022-08-14T04:50:05.237Z,70.38
2022-08-14T04:55:11.037Z,70.56
2022-08-14T05:00:16.040Z,71.04
2022-08-14T05:05:21.943Z,71.10
2022-08-14T05:10:26.401Z,71.25
2022-08-14T05:15:39.448Z,71.51
2022-08-14T05:21:58.022Z,72.14
2022-08-14T05:26:18.102Z,71.96
2022-08-14T05:31:22.280Z,72.16
2022-08-14T05:36:27.153Z,72.21
2022-08-14T05:41:52.984Z,72.86
2022-08-14T05:46:54.275Z,73.31
2022-08-14T05:51:57.779Z,73.55
2022-08-14T05:57:01.201Z,73.90
2022-08-14T06:02:05.900Z,74.29
2022-08-14T06:07:09.543Z,74.32
2022-08-14T06:12:12.527Z,74.42
2022-08-14T06:17:46.281Z,74.87
2022-08-14T06:22:50.226Z,74.93
2022-08-14T06:27:54.732Z,75.36
2022-08-14T06:33:00.305Z,76.00
2022-08-14T06:38:04.645Z,75.87
2022-08-14T06:43:09.916Z,76.11
2022-08-14T06:48:19.311Z,76.44
2022-08-14T06:53:28.001Z,76.27
2022-08-14T06:58:32.511Z,76.63
2022-08-14T07:03:54.333Z,76.65
2022-08-14T07:08:57.068Z,76.19
2022-08-14T07:14:01.507Z,76.26
2022-08-14T07:19:09.847Z,76.28
2022-08-14T07:24:21.527Z,76.64
2022-08-14T07:29:28.706Z,77.04
2022-08-14T07:34:40.656Z,76.83
2022-08-14T07:39:44.221Z,75.92
2022-08-14T07:44:50.515Z,76.00
2022-08-14T07:50:02.422Z,75.90
2022-08-14T07:55:06.770Z,76.25
2022-08-14T08:00:31.155Z,75.82
2022-08-14T08:05:38.954Z,75.94
2022-08-14T08:11:01.793Z,75.34
2022-08-14T08:16:06.674Z,75.10
2022-08-14T08:21:12.557Z,74.30
2022-08-14T08:26:15.929Z,74.10
2022-08-14T08:31:20.492Z,73.48
2022-08-14T08:36:25.137Z,73.70
2022-08-14T08:41:41.167Z,73.31
2022-08-14T08:46:48.037Z,73.08
2022-08-14T08:52:04.212Z,73.08
2022-08-14T08:57:13.324Z,72.31
2022-08-14T09:02:19.784Z,72.06
2022-08-14T09:07:28.331Z,71.80
2022-08-14T09:12:33.442Z,71.93
2022-08-14T09:17:37.007Z,71.69
2022-08-14T09:22:42.470Z,71.16
2022-08-14T09:27:50.133Z,70.73
2022-08-14T09:33:11.721Z,70.89
2022-08-14T09:38:27.528Z,70.51
2022-08-14T09:43:34.129Z,70.44
2022-08-14T09:48:38.719Z,70.13
2022-08-14T09:54:19.490Z,69.78
2022-08-14T09:59:16.605Z,69.69
2022-08-14T10:04:22.013Z,69.64
2022-08-14T10:10:00.297Z,69.60
2022-08-14T10:15:19.472Z,69.45
2022-08-14T10:20:39.414Z,69.21
2022-08-14T10:25:50.657Z,69.43
2022-08-14T10:30:54.558Z,69.20
2022-08-14T10:36:00.569Z,69.37
2022-08-14T10:41:15.388Z,69.69
2022-08-14T10:46:58.922Z,70.48
2022-08-14T10:51:42.781Z,71.03
2022-08-14T10:56:46.892Z,71.67
2022-08-14T11:01:49.716Z,71.76
2022-08-14T11:06:54.331Z,71.59
2022-08-14T11:12:44.130Z,71.34
2022-08-14T11:17:21.819Z,71.25
2022-08-14T11:22:56.759Z,70.94
2022-08-14T11:27:56.326Z,70.59
2022-08-14T11:32:59.543Z,70.27
2022-08-14T11:38:04.771Z,70.13
2022-08-14T11:43:10.131Z,70.12
2022-08-14T11:48:59.161Z,69.90
2022-08-14T11:53:44.784Z,69.94
2022-08-14T11:58:54.122Z,69.56
2022-08-14T12:03:59.061Z,69.67
2022-08-14T12:09:04.502Z,69.49
2022-08-14T12:14:34.943Z,69.31
2022-08-14T12:19:45.843Z,69.10
2022-08-14T12:24:54.491Z,68.95
2022-08-14T12:29:59.909Z,68.67
2022-08-14T12:35:03.439Z,68.49
2022-08-14T12:40:11.413Z,68.60
2022-08-14T12:45:17.184Z,68.46
2022-08-14T12:50:20.658Z,68.45
2022-08-14T12:55:32.637Z,68.52
2022-08-14T13:01:16.362Z,68.57
2022-08-14T13:06:15.109Z,68.70
2022-08-14T13:11:19.558Z,68.69
2022-08-14T13:16:33.793Z,68.48
2022-08-14T13:21:58.955Z,68.78
2022-08-14T13:27:05.411Z,68.63
2022-08-14T13:32:10.267Z,68.66
2022-08-14T13:37:15.299Z,68.59
2022-08-14T13:42:21.949Z,68.70
2022-08-14T13:47:29.585Z,68.84
2022-08-14T13:52:51.529Z,68.61
2022-08-14T13:58:04.467Z,68.42
2022-08-14T14:03:10.382Z,68.24
2022-08-14T14:08:18.764Z,68.38
2022-08-14T14:13:44.629Z,68.33
2022-08-14T14:18:52.350Z,68.22
2022-08-14T14:23:56.272Z,68.39
2022-08-14T14:29:01.597Z,68.22
2022-08-14T14:34:07.749Z,68.22
2022-08-14T14:39:30.008Z,68.36
2022-08-14T14:44:40.259Z,68.08
2022-08-14T14:49:55.073Z,68.34
2022-08-14T14:54:59.186Z,68.22
2022-08-14T15:00:02.691Z,68.21
2022-08-14T15:05:08.318Z,67.99
2022-08-14T15:10:27.055Z,67.83
2022-08-14T15:15:37.392Z,67.74
2022-08-14T15:20:42.260Z,67.75
2022-08-14T15:25:52.388Z,67.62
2022-08-14T15:30:58.813Z,67.91
2022-08-14T15:36:05.049Z,67.72
2022-08-14T15:41:33.714Z,67.68
2022-08-14T15:46:45.639Z,67.65
2022-08-14T15:51:50.895Z,67.61
2022-08-14T15:56:58.494Z,67.62
2022-08-14T16:02:02.673Z,67.51
2022-08-14T16:07:08.858Z,67.37
2022-08-14T16:12:12.131Z,67.14
2022-08-14T16:17:18.336Z,67.19
2022-08-14T16:22:59.080Z,66.76
2022-08-14T16:27:45.888Z,66.33
2022-08-14T16:32:55.437Z,66.27
2022-08-14T16:43:26.069Z,66.36
2022-08-14T16:48:57.612Z,65.91
2022-08-14T16:53:55.241Z,65.70
2022-08-14T16:59:10.035Z,65.66
2022-08-14T17:04:25.091Z,65.69
2022-08-14T17:09:36.428Z,65.49
2022-08-14T17:14:57.486Z,65.41
2022-08-14T17:20:02.067Z,65.32
2022-08-14T17:25:13.013Z,65.48
2022-08-14T17:30:31.908Z,65.53
2022-08-14T17:35:57.473Z,65.62
2022-08-14T17:41:19.042Z,65.17
2022-08-14T17:46:35.622Z,65.50
2022-08-14T17:52:01.541Z,65.32
2022-08-14T17:57:13.101Z,65.47
2022-08-14T18:02:18.280Z,65.32
2022-08-14T18:08:00.407Z,65.57
2022-08-14T18:12:48.736Z,65.24
2022-08-14T18:17:54.068Z,65.28
2022-08-14T18:22:58.140Z,65.30
2022-08-14T18:28:10.681Z,65.37
2022-08-14T18:33:23.115Z,65.67
2022-08-14T18:38:55.312Z,65.73
2022-08-14T18:43:59.597Z,65.50
2022-08-14T18:49:16.476Z,65.46
2022-08-14T18:54:33.239Z,65.51
2022-08-14T18:59:43.254Z,65.16
2022-08-14T19:04:46.332Z,65.23
2022-08-14T19:09:54.482Z,65.09
2022-08-14T19:15:08.664Z,64.93
2022-08-14T19:20:12.908Z,64.67
2022-08-14T19:25:48.866Z,65.29
2022-08-14T19:31:37.109Z,64.35
2022-08-14T19:37:05.030Z,64.19
2022-08-14T19:42:10.503Z,63.89
2022-08-14T19:47:16.581Z,62.46
2022-08-14T19:52:22.581Z,62.20
2022-08-14T19:57:29.121Z,62.23
2022-08-14T20:02:32.169Z,61.41
2022-08-14T20:07:59.327Z,61.67
2022-08-14T20:13:07.721Z,61.17
2022-08-14T20:18:22.169Z,61.49
2022-08-14T20:23:38.126Z,62.17
2022-08-14T20:28:51.511Z,62.09
2022-08-14T20:34:05.993Z,62.97
2022-08-14T20:39:15.724Z,60.82
2022-08-14T20:44:38.724Z,61.14
2022-08-14T20:49:41.584Z,62.12
2022-08-14T20:54:50.860Z,62.29
2022-08-14T20:59:56.646Z,62.67
2022-08-14T21:05:04.577Z,62.90
2022-08-14T21:10:34.042Z,63.22
2022-08-14T21:15:39.830Z,63.08
2022-08-14T21:20:45.544Z,61.58
2022-08-14T21:25:48.977Z,61.60
2022-08-14T21:30:55.100Z,61.80
2022-08-14T21:36:07.833Z,61.54
2022-08-14T21:41:49.999Z,61.61
2022-08-14T21:46:47.573Z,61.57
2022-08-14T21:52:00.008Z,61.67
2022-08-14T21:58:04.090Z,62.00
2022-08-14T22:02:51.768Z,61.82
2022-08-14T22:07:59.359Z,62.13
2022-08-14T22:13:05.564Z,62.33
2022-08-14T22:18:12.242Z,62.22
2022-08-14T22:23:25.852Z,62.52
2022-08-14T22:28:32.678Z,62.40
2022-08-14T22:33:36.227Z,62.67
2022-08-14T22:38:49.603Z,62.47
2022-08-14T22:43:56.515Z,62.31
2022-08-14T22:49:15.426Z,62.17
2022-08-14T22:54:52.244Z,62.19
2022-08-14T22:59:50.045Z,62.04
2022-08-14T23:04:55.390Z,62.03
2022-08-14T23:10:32.284Z,62.07
2022-08-14T23:15:28.938Z,62.13
2022-08-14T23:20:36.199Z,61.96
2022-08-14T23:25:57.919Z,62.26
2022-08-14T23:31:05.580Z,61.96
2022-08-14T23:36:28.282Z,62.20
2022-08-14T23:41:46.954Z,62.46
2022-08-14T23:47:03.521Z,62.20
2022-08-14T23:52:57.379Z,62.25
2022-08-14T23:57:38.029Z,62.34
